METAR Data
IDs: Format: Raw Decoded Include TAF

Data at: 1456 UTC 18 Aug 2019

PAMC 181453Z AUTO 30005KT 10SM CLR 06/04 A3038 RMK AO2 SLP293 T00610039 58007 TSNO $
PAMC 181353Z AUTO 00000KT 10SM CLR 07/04 A3039 RMK AO2 SLP296 T00670039 TSNO $
PAMC 181253Z AUTO 03003KT 10SM CLR 09/04 A3040 RMK AO2 SLP299 T00890044 TSNO $
PAMC 181153Z AUTO 02009KT 10SM CLR 09/04 A3041 RMK AO2 SLP300 T00940044 10144 20094 58007 TSNO $
PAMC 181053Z AUTO 02006KT 10SM CLR 10/05 A3042 RMK AO2 SLP305 T01000050 TSNO $
PAMC 180953Z AUTO 02006KT 10SM CLR 10/06 A3042 RMK AO2 SLP305 T01000061 TSNO $
PAMC 180853Z AUTO 35005KT 10SM CLR 11/06 A3043 RMK AO2 SLP308 T01110061 401830033 58003 TSNO $
PAMC 180753Z AUTO 04007KT 10SM CLR 12/06 A3043 RMK AO2 SLP309 T01170061 TSNO $
PAMC 180653Z AUTO 03005KT 10SM CLR 13/07 A3043 RMK AO2 SLP310 T01280067 TSNO $
PAMC 180553Z AUTO 02006KT 10SM CLR 14/07 A3044 RMK AO2 SLP310 T01440067 10183 20144 58004 TSNO $
PAMC 180453Z AUTO 01008KT 10SM CLR 16/06 A3044 RMK AO2 SLP312 T01610061 TSNO $
PAMC 180353Z AUTO 01008KT 10SM CLR 17/06 A3045 RMK AO2 SLP314 T01720061 TSNO $
PAMC 180253Z AUTO 36009G16KT 10SM FEW055 18/06 A3045 RMK AO2 SLP314 T01780061 56007 TSNO $
PAMC 180153Z 03008KT 10SM CLR 18/07 A3045 RMK AO2 SLP316 T01830067 $
PAMC 180053Z 03010G18KT 10SM CLR 18/07 A3046 RMK AO2 SLP319 T01780072 $
PAMC 172353Z 01007G15KT 10SM BKN044 17/08 A3047 RMK AO2 SLP322 T01670078 10172 20100 58009 $
PAMC 172253Z 03009KT 10SM CLR 17/08 A3049 RMK AO2 SLP327 T01670078 $
PAMC 172153Z 02006KT 10SM BKN036 15/07 A3049 RMK AO2 SLP330 T01500072 $
PAMC 172053Z 04008KT 10SM CLR 15/07 A3050 RMK AO2 SLP331 T01500067 51002 $
PAMC 171953Z VRB03KT 10SM FEW025 14/08 A3050 RMK AO2 SLP331 T01390078 $
PAMC 171853Z 01008KT 10SM CLR 12/07 A3050 RMK AO2 SLP330 T01220072 $
PAMC 171753Z 36007KT 10SM FEW043 10/07 A3049 RMK AO2 SLP329 T01000067 10100 20033 51004 $
PAMC 171653Z AUTO 30005KT 10SM FEW046 07/06 A3049 RMK AO2 SLP329 T00720056 TSNO $
PAMC 171553Z AUTO 28003KT 10SM CLR 05/04 A3048 RMK AO2 SLP328 T00500044 TSNO $
PAMC 171453Z AUTO 00000KT 10SM BKN041 04/03 A3048 RMK AO2 SLP326 T00390033 51006 TSNO $
PAMC 171353Z AUTO 27004KT 10SM FEW041 04/04 A3048 RMK AO2 SLP325 T00440044 TSNO $
PAMC 171253Z AUTO 29004KT 10SM CLR 05/04 A3046 RMK AO2 SLP321 T00500044 TSNO $
PAMC 171153Z AUTO 33003KT 10SM CLR 07/06 A3046 RMK AO2 SLP319 T00720056 10133 20072 51007 TSNO $
PAMC 171053Z AUTO 35004KT 10SM CLR 08/07 A3046 RMK AO2 SLP319 T00830067 TSNO $
PAMC 170953Z AUTO 02003KT 10SM CLR 09/08 A3045 RMK AO2 SLP316 T00890078 TSNO $
PAMC 170853Z AUTO 03005KT 10SM CLR 11/09 A3044 RMK AO2 SLP311 T01060089 401560106 52019 TSNO $
PAMC 170753Z AUTO 36005KT 10SM BKN036 12/09 A3041 RMK AO2 SLP303 T01220089 TSNO $
PAMC 170711Z AUTO 31005KT 10SM OVC030 12/09 A3040 RMK AO2 T01220094 TSNO $
PAMC 170704Z AUTO 32006KT 10SM BKN027 BKN035 12/09 A3040 RMK AO2 T01220094 TSNO $
PAMC 170653Z AUTO 34004KT 10SM SCT027 BKN038 12/09 A3041 RMK AO2 SLP300 T01220094 TSNO $
PAMC 170553Z AUTO 28006KT 10SM CLR 13/09 A3038 RMK AO2 SLP292 60000 T01330094 10150 20133 53009 TSNO $
PAMC 170453Z AUTO 33009KT 10SM FEW015 FEW021 SCT027 14/12 A3037 RMK AO2 SLP287 T01440117 TSNO $
PAMC 170439Z AUTO 30009KT 10SM SCT021 14/12 A3036 RMK AO2 T01440122 TSNO $
PAMC 170426Z AUTO 30007KT 10SM BKN021 BKN030 14/12 A3036 RMK AO2 T01440122 TSNO $
PAMC 170411Z AUTO 31011KT 10SM SCT023 OVC030 14/12 A3036 RMK AO2 T01440117 TSNO $
PAMC 170353Z AUTO 29008KT 10SM BKN024 BKN034 OVC041 15/12 A3035 RMK AO2 SLP282 T01500117 TSNO $
PAMC 170341Z AUTO 30004KT 10SM BKN025 OVC041 15/12 A3036 RMK AO2 T01500117 TSNO $
PAMC 170324Z AUTO 28006KT 10SM SCT025 BKN041 OVC060 15/12 A3036 RMK AO2 T01500117 TSNO $